Time;durP1;ratioP1;P1;durP2;ratioP2;P2;SDS_P1;SDS_P2;PMS_P1;PMS_P2;Temp;Humidity;BMP_temperature;BMP_pressure;BME280_temperature;BME280_humidity;BME280_pressure;Samples;Min_cycle;Max_cycle;Signal;HPM_P1;HPM_P2
2023/09/22 00:01:13;;;;;;;5.50;2.90;;;;;;;19.11;100.00;100870.53;110021;1238;57708;-67
2023/09/22 00:03:42;;;;;;;4.70;2.80;;;;;;;19.09;100.00;100870.33;110055;1238;62745;-67
2023/09/22 00:06:11;;;;;;;6.00;2.60;;;;;;;19.04;100.00;100869.86;110016;1238;72396;-68
2023/09/22 00:08:40;;;;;;;5.70;3.30;;;;;;;19.00;100.00;100871.25;109933;1238;70949;-69
2023/09/22 00:11:10;;;;;;;4.50;3.10;;;;;;;18.96;100.00;100868.02;110011;1238;63669;-67
2023/09/22 00:13:39;;;;;;;5.10;3.10;;;;;;;18.91;100.00;100867.14;109940;1239;57659;-68
2023/09/22 00:16:09;;;;;;;5.80;3.20;;;;;;;18.87;100.00;100866.00;109967;1238;57168;-67
2023/09/22 00:18:38;;;;;;;5.80;2.70;;;;;;;18.73;100.00;100857.88;109917;1238;73426;-67
2023/09/22 00:21:08;;;;;;;7.40;3.10;;;;;;;18.70;100.00;100861.36;110032;1238;63217;-67
2023/09/22 00:23:38;;;;;;;6.10;2.80;;;;;;;18.67;100.00;100863.15;109931;1238;59831;-67
2023/09/22 00:26:06;;;;;;;6.50;2.90;;;;;;;18.69;100.00;100866.41;109988;1238;72996;-67
2023/09/22 00:28:36;;;;;;;5.30;3.10;;;;;;;18.67;100.00;100866.64;109989;1238;57677;-67
2023/09/22 00:31:05;;;;;;;5.80;3.00;;;;;;;18.64;100.00;100865.02;110022;1239;57637;-67
2023/09/22 00:33:34;;;;;;;5.50;3.00;;;;;;;18.65;100.00;100864.35;110023;1239;62886;-67
2023/09/22 00:36:03;;;;;;;3.60;2.60;;;;;;;18.68;100.00;100862.25;109938;1238;61551;-67
2023/09/22 00:38:32;;;;;;;4.50;2.30;;;;;;;18.75;100.00;100859.77;110006;1238;59355;-68
2023/09/22 00:41:01;;;;;;;5.60;2.60;;;;;;;18.76;100.00;100856.54;109928;1239;63059;-68
2023/09/22 00:43:30;;;;;;;4.40;2.30;;;;;;;18.77;100.00;100858.03;109959;1238;60224;-67
2023/09/22 00:45:59;;;;;;;5.80;2.70;;;;;;;18.86;100.00;100858.30;109994;1238;61460;-68
2023/09/22 00:48:34;;;;;;;6.70;2.90;;;;;;;18.92;100.00;100855.02;109775;1238;74313;-68
2023/09/22 00:51:04;;;;;;;4.40;2.70;;;;;;;18.93;100.00;100856.04;109811;1242;61247;-68
2023/09/22 00:53:37;;;;;;;6.20;2.90;;;;;;;18.94;100.00;100858.11;109893;1241;59992;-68
2023/09/22 00:56:07;;;;;;;4.00;2.40;;;;;;;18.93;100.00;100858.77;109771;1238;72873;-68
2023/09/22 00:58:36;;;;;;;4.10;2.50;;;;;;;18.97;100.00;100855.91;109974;1239;60845;-66
2023/09/22 01:01:05;;;;;;;4.00;2.70;;;;;;;19.12;100.00;100856.99;109921;1238;57767;-68
2023/09/22 01:03:34;;;;;;;4.50;2.60;;;;;;;19.14;100.00;100856.25;110058;1239;61957;-67
2023/09/22 01:06:06;;;;;;;7.80;3.10;;;;;;;19.12;100.00;100856.09;109927;1238;60721;-67
2023/09/22 01:08:35;;;;;;;5.10;3.10;;;;;;;19.14;100.00;100858.40;109989;1238;69701;-67
2023/09/22 01:11:04;;;;;;;3.50;2.30;;;;;;;19.15;100.00;100860.21;110046;1238;63892;-67
2023/09/22 01:13:33;;;;;;;6.90;2.50;;;;;;;19.11;100.00;100863.33;109927;1239;62457;-67
2023/09/22 01:16:02;;;;;;;3.60;2.50;;;;;;;19.04;100.00;100860.09;110066;1238;61489;-67
2023/09/22 01:18:31;;;;;;;4.40;2.70;;;;;;;19.00;100.00;100864.56;109823;1242;62398;-66
2023/09/22 01:21:00;;;;;;;6.30;3.20;;;;;;;18.94;100.00;100861.45;110068;1241;60752;-67
2023/09/22 01:23:29;;;;;;;5.80;2.60;;;;;;;18.93;100.00;100857.36;110041;1238;68619;-67
2023/09/22 01:25:58;;;;;;;6.50;3.10;;;;;;;18.91;100.00;100855.55;109931;1239;74791;-67
2023/09/22 01:28:27;;;;;;;6.10;3.10;;;;;;;18.80;100.00;100852.41;109770;1242;60827;-67
2023/09/22 01:30:55;;;;;;;4.80;3.00;;;;;;;18.78;100.00;100856.29;109930;1238;60952;-68
2023/09/22 01:33:24;;;;;;;4.60;2.80;;;;;;;18.73;100.00;100859.16;109907;1238;73374;-67
2023/09/22 01:35:54;;;;;;;3.90;2.80;;;;;;;18.66;100.00;100856.48;109924;1238;73009;-68
2023/09/22 01:38:23;;;;;;;7.60;2.80;;;;;;;18.57;100.00;100856.71;109938;1238;70101;-67
2023/09/22 01:40:54;;;;;;;7.60;3.30;;;;;;;18.51;100.00;100859.23;109908;1238;62181;-71
2023/09/22 01:43:23;;;;;;;4.00;3.10;;;;;;;18.46;100.00;100854.00;109905;1238;61748;-67
2023/09/22 01:45:52;;;;;;;5.20;2.90;;;;;;;18.40;100.00;100855.84;109925;1238;61565;-68
2023/09/22 01:48:22;;;;;;;7.60;3.40;;;;;;;18.36;100.00;100856.27;109776;1238;62442;-68
2023/09/22 01:50:51;;;;;;;5.30;2.80;;;;;;;18.28;100.00;100854.63;109628;1238;71371;-68
2023/09/22 01:53:20;;;;;;;6.10;2.80;;;;;;;18.22;100.00;100853.27;109833;1238;70873;-68
2023/09/22 01:55:48;;;;;;;5.60;2.80;;;;;;;18.19;100.00;100856.05;109758;1238;73139;-67
2023/09/22 01:58:17;;;;;;;5.10;2.80;;;;;;;18.16;100.00;100853.92;109594;1242;57720;-67
2023/09/22 02:00:48;;;;;;;9.50;3.40;;;;;;;18.10;100.00;100850.79;109789;1241;57263;-67
2023/09/22 02:03:18;;;;;;;8.40;3.10;;;;;;;18.14;100.00;100850.41;109924;1239;62880;-67
2023/09/22 02:05:47;;;;;;;7.90;3.10;;;;;;;18.12;100.00;100850.23;109879;1238;71372;-67
2023/09/22 02:08:16;;;;;;;8.40;3.00;;;;;;;18.11;100.00;100847.73;109762;1238;60292;-68
2023/09/22 02:10:45;;;;;;;6.20;3.10;;;;;;;18.07;100.00;100843.36;109761;1241;63277;-68
2023/09/22 02:13:14;;;;;;;8.20;3.10;;;;;;;18.03;100.00;100842.58;109985;1238;57972;-68
2023/09/22 02:15:43;;;;;;;8.30;3.50;;;;;;;18.03;100.00;100844.17;109920;1238;60985;-67
2023/09/22 02:18:12;;;;;;;5.70;3.10;;;;;;;18.05;100.00;100840.18;109903;1238;72934;-68
2023/09/22 02:20:42;;;;;;;7.70;3.00;;;;;;;18.06;100.00;100840.02;109882;1238;72386;-67
2023/09/22 02:23:11;;;;;;;8.90;3.20;;;;;;;18.05;100.00;100838.33;109924;1238;70156;-67
2023/09/22 02:25:40;;;;;;;7.30;3.10;;;;;;;18.05;100.00;100837.37;110024;1238;73206;-68
2023/09/22 02:28:09;;;;;;;8.00;3.20;;;;;;;18.09;100.00;100844.59;109914;1239;62305;-68
2023/09/22 02:30:39;;;;;;;8.90;3.20;;;;;;;18.12;100.00;100847.10;109929;1238;60662;-68
2023/09/22 02:33:08;;;;;;;7.20;2.90;;;;;;;18.13;100.00;100845.41;110001;1238;73872;-68
2023/09/22 02:35:41;;;;;;;7.70;3.30;;;;;;;18.14;100.00;100849.39;109945;1238;70389;-67
2023/09/22 02:38:10;;;;;;;10.60;3.40;;;;;;;18.15;100.00;100851.05;109791;1241;60898;-68
2023/09/22 02:40:39;;;;;;;10.90;3.50;;;;;;;18.14;100.00;100851.84;110028;1240;62422;-68
2023/09/22 02:43:08;;;;;;;4.80;3.30;;;;;;;18.14;100.00;100850.20;109970;1239;57185;-68
2023/09/22 02:45:39;;;;;;;4.20;2.90;;;;;;;18.14;100.00;100846.84;109915;1238;57688;-68
2023/09/22 02:48:08;;;;;;;4.90;2.90;;;;;;;18.14;100.00;100845.42;109919;1238;62014;-68
2023/09/22 02:50:37;;;;;;;10.10;3.20;;;;;;;18.07;100.00;100843.34;109780;1242;61612;-68
2023/09/22 02:53:06;;;;;;;6.40;3.00;;;;;;;18.04;100.00;100837.04;109817;1242;60154;-68
2023/09/22 02:55:37;;;;;;;5.60;3.10;;;;;;;17.98;100.00;100836.67;109982;1239;73419;-67
2023/09/22 02:58:08;;;;;;;4.60;2.90;;;;;;;17.93;100.00;100833.73;109873;1241;57645;-68
2023/09/22 03:00:43;;;;;;;7.10;3.20;;;;;;;17.90;100.00;100835.95;109976;1239;60984;-67
2023/09/22 03:03:16;;;;;;;8.10;3.10;;;;;;;17.86;100.00;100836.30;109812;1239;73835;-67
2023/09/22 03:05:46;;;;;;;5.20;2.70;;;;;;;17.82;100.00;100832.60;109725;1241;72563;-67
2023/09/22 03:08:15;;;;;;;8.90;3.10;;;;;;;17.78;100.00;100833.27;110016;1239;59362;-67
2023/09/22 03:10:44;;;;;;;5.90;3.00;;;;;;;17.75;100.00;100836.22;109877;1239;72240;-67
2023/09/22 03:13:13;;;;;;;6.20;3.00;;;;;;;17.74;100.00;100833.66;109957;1240;62568;-67
2023/09/22 03:15:42;;;;;;;7.40;3.40;;;;;;;17.64;100.00;100834.66;109873;1240;60681;-67
2023/09/22 03:18:11;;;;;;;6.30;3.30;;;;;;;17.64;100.00;100837.30;109860;1239;62420;-67
2023/09/22 03:20:40;;;;;;;6.60;3.20;;;;;;;17.64;100.00;100836.23;109954;1241;61673;-67
2023/09/22 03:23:09;;;;;;;7.90;3.30;;;;;;;17.59;100.00;100836.16;110018;1239;59797;-67
2023/09/22 03:25:38;;;;;;;7.80;3.30;;;;;;;17.61;100.00;100842.55;110003;1239;73378;-67
2023/09/22 03:28:07;;;;;;;8.80;3.80;;;;;;;17.58;100.00;100844.08;109928;1241;62627;-67
2023/09/22 03:30:36;;;;;;;5.40;3.30;;;;;;;17.60;100.00;100839.50;110005;1238;60799;-67
2023/09/22 03:33:05;;;;;;;7.50;3.70;;;;;;;17.58;100.00;100837.34;109778;1238;73286;-67
2023/09/22 03:35:36;;;;;;;11.60;4.00;;;;;;;17.57;100.00;100839.58;109933;1238;71997;-67
2023/09/22 03:38:09;;;;;;;6.50;3.90;;;;;;;17.59;100.00;100838.70;109909;1238;69428;-67
2023/09/22 03:40:41;;;;;;;;;;;;;;;17.55;100.00;100839.99;109881;1241;63461;-68
2023/09/22 03:43:10;;;;;;;8.80;4.00;;;;;;;17.54;100.00;100835.10;109851;1239;63011;-68
2023/09/22 03:45:39;;;;;;;7.40;3.60;;;;;;;17.57;100.00;100838.22;109934;1238;60974;-68
2023/09/22 03:48:09;;;;;;;7.80;4.00;;;;;;;17.56;100.00;100839.71;109996;1240;63173;-70
2023/09/22 03:50:39;;;;;;;7.90;3.80;;;;;;;17.52;100.00;100829.88;110003;1240;61460;-68
2023/09/22 03:53:08;;;;;;;9.80;4.20;;;;;;;17.54;100.00;100834.11;109900;1238;70493;-68
2023/09/22 03:55:37;;;;;;;10.70;4.40;;;;;;;17.55;100.00;100836.50;109948;1238;73743;-68
2023/09/22 03:58:06;;;;;;;10.10;4.20;;;;;;;17.53;100.00;100837.84;109905;1239;61252;-68
2023/09/22 04:00:35;;;;;;;6.30;3.70;;;;;;;17.61;100.00;100845.30;109978;1238;57643;-68
2023/09/22 04:03:09;;;;;;;7.80;4.10;;;;;;;17.61;100.00;100852.16;109859;1239;62737;-68
2023/09/22 04:05:39;;;;;;;7.80;3.70;;;;;;;17.68;100.00;100852.38;109789;1238;61156;-68
2023/09/22 04:08:08;;;;;;;6.50;3.90;;;;;;;17.73;100.00;100854.29;109591;1238;59054;-69
2023/09/22 04:10:37;;;;;;;12.80;4.10;;;;;;;17.77;100.00;100852.25;109871;1241;62264;-68
2023/09/22 04:13:07;;;;;;;8.30;3.90;;;;;;;17.76;100.00;100855.65;109879;1239;62837;-73
2023/09/22 04:15:36;;;;;;;13.60;4.60;;;;;;;17.73;100.00;100862.27;109993;1239;61348;-67
2023/09/22 04:18:06;;;;;;;6.70;3.90;;;;;;;17.81;100.00;100857.46;109993;1238;71752;-68
2023/09/22 04:20:43;;;;;;;8.70;4.10;;;;;;;17.87;100.00;100851.20;109948;1239;61988;-68
2023/09/22 04:23:12;;;;;;;10.60;4.90;;;;;;;17.86;100.00;100853.23;109897;1239;59013;-68
2023/09/22 04:25:42;;;;;;;9.30;4.20;;;;;;;17.86;100.00;100849.93;109875;1241;62318;-68
2023/09/22 04:28:11;;;;;;;7.00;3.70;;;;;;;17.90;100.00;100848.95;109867;1239;61932;-68
2023/09/22 04:30:43;;;;;;;8.30;3.50;;;;;;;17.93;100.00;100845.00;109920;1240;57709;-67
2023/09/22 04:33:12;;;;;;;10.50;4.80;;;;;;;17.96;100.00;100845.52;109912;1240;62785;-67
2023/09/22 04:35:41;;;;;;;13.50;4.60;;;;;;;18.06;100.00;100847.52;109908;1241;61634;-68
2023/09/22 04:38:10;;;;;;;9.70;4.10;;;;;;;18.13;100.00;100846.96;109812;1240;59770;-68
2023/09/22 04:40:40;;;;;;;10.10;3.30;;;;;;;18.19;100.00;100843.89;109916;1239;74304;-68
2023/09/22 04:43:11;;;;;;;8.20;3.50;;;;;;;18.26;100.00;100844.06;109894;1241;57682;-69
2023/09/22 04:45:43;;;;;;;5.90;3.50;;;;;;;18.36;100.00;100846.43;109900;1240;60339;-68
2023/09/22 04:48:13;;;;;;;7.50;3.70;;;;;;;18.45;100.00;100846.81;109646;1240;62900;-68
2023/09/22 04:50:42;;;;;;;12.10;3.80;;;;;;;18.57;100.00;100844.90;109946;1239;61594;-68
2023/09/22 04:53:11;;;;;;;5.90;3.60;;;;;;;18.68;100.00;100842.69;109933;1240;69675;-67
2023/09/22 04:55:40;;;;;;;8.70;3.80;;;;;;;18.81;100.00;100844.95;109906;1238;63682;-68
2023/09/22 04:58:09;;;;;;;8.30;3.70;;;;;;;18.91;100.00;100843.52;109928;1239;57700;-68
2023/09/22 05:00:38;;;;;;;9.50;3.70;;;;;;;18.97;100.00;100838.45;109941;1239;57679;-68
2023/09/22 05:03:07;;;;;;;10.60;3.70;;;;;;;19.02;100.00;100836.83;110009;1238;62945;-68
2023/09/22 05:05:37;;;;;;;11.40;4.10;;;;;;;19.06;100.00;100833.40;110095;1238;61624;-68
2023/09/22 05:08:06;;;;;;;6.00;3.40;;;;;;;19.10;100.00;100834.42;109972;1240;58992;-69
2023/09/22 05:10:35;;;;;;;12.00;3.90;;;;;;;19.07;100.00;100833.14;109974;1241;62567;-68
2023/09/22 05:13:06;;;;;;;6.60;3.20;;;;;;;19.00;100.00;100832.77;110032;1240;61671;-68
2023/09/22 05:15:35;;;;;;;9.20;3.80;;;;;;;18.95;100.00;100828.38;110061;1238;57127;-68
2023/09/22 05:18:04;;;;;;;6.50;3.50;;;;;;;18.95;100.00;100831.08;109900;1238;62280;-68
2023/09/22 05:20:34;;;;;;;7.40;3.90;;;;;;;18.97;100.00;100837.41;109796;1238;72163;-68
2023/09/22 05:23:03;;;;;;;7.50;4.10;;;;;;;19.01;100.00;100839.56;109855;1238;70527;-68
2023/09/22 05:25:37;;;;;;;7.40;4.10;;;;;;;19.04;100.00;100844.18;109883;1238;62771;-68
2023/09/22 05:28:11;;;;;;;6.00;3.90;;;;;;;19.06;100.00;100848.92;109872;1239;57585;-70
2023/09/22 05:30:40;;;;;;;11.10;4.30;;;;;;;19.10;100.00;100851.50;109875;1238;60955;-68
2023/09/22 05:33:10;;;;;;;8.00;3.80;;;;;;;19.12;100.00;100853.66;109802;1240;62831;-68
2023/09/22 05:35:39;;;;;;;8.10;3.60;;;;;;;19.20;100.00;100851.71;109883;1240;72120;-68
2023/09/22 05:38:09;;;;;;;14.60;4.00;;;;;;;19.12;100.00;100853.83;109984;1238;69741;-68
2023/09/22 05:40:38;;;;;;;7.20;3.90;;;;;;;19.07;100.00;100847.92;109740;1238;63791;-68
2023/09/22 05:43:13;;;;;;;8.70;3.70;;;;;;;19.10;100.00;100847.79;109710;1242;57198;-70
2023/09/22 05:45:42;;;;;;;7.30;4.10;;;;;;;19.09;100.00;100849.05;109801;1240;57775;-68
2023/09/22 05:48:11;;;;;;;5.00;3.50;;;;;;;19.10;100.00;100850.81;109851;1238;62679;-68
2023/09/22 05:50:40;;;;;;;8.10;3.80;;;;;;;19.17;100.00;100853.30;109998;1238;60965;-68
2023/09/22 05:53:09;;;;;;;7.40;3.50;;;;;;;19.22;100.00;100860.27;109926;1238;60401;-68
2023/09/22 05:55:38;;;;;;;11.10;4.50;;;;;;;19.27;100.00;100861.40;110049;1238;62480;-68
2023/09/22 05:58:08;;;;;;;8.60;3.80;;;;;;;19.36;100.00;100861.50;109922;1241;57652;-69
2023/09/22 06:00:37;;;;;;;7.10;4.00;;;;;;;19.36;100.00;100866.27;109920;1239;61033;-68
2023/09/22 06:03:09;;;;;;;11.80;4.20;;;;;;;19.36;100.00;100865.31;109950;1239;72766;-69
2023/09/22 06:05:39;;;;;;;9.70;4.60;;;;;;;19.41;100.00;100872.03;109906;1239;62105;-68
2023/09/22 06:08:08;;;;;;;6.90;3.60;;;;;;;19.56;100.00;100873.94;109959;1238;70448;-69
2023/09/22 06:10:38;;;;;;;7.90;3.40;;;;;;;19.52;100.00;100877.17;109761;1238;62752;-68
2023/09/22 06:13:07;;;;;;;13.40;7.20;;;;;;;19.67;100.00;100879.33;109964;1238;62269;-68
2023/09/22 06:15:36;;;;;;;37.00;19.90;;;;;;;19.73;100.00;100883.61;109967;1238;60704;-71
2023/09/22 06:18:05;;;;;;;11.10;6.60;;;;;;;19.83;100.00;100885.02;109992;1241;62447;-78
2023/09/22 06:20:34;;;;;;;173.70;108.30;;;;;;;19.94;100.00;100884.16;109939;1238;60931;-77
2023/09/22 06:23:03;;;;;;;13.80;7.20;;;;;;;20.14;100.00;100883.27;109901;1239;69309;-77
2023/09/22 06:25:32;;;;;;;18.40;11.00;;;;;;;20.29;100.00;100877.48;109994;1238;72303;-77
2023/09/22 06:28:01;;;;;;;12.70;5.40;;;;;;;20.35;100.00;100880.16;109986;1239;63081;-80
2023/09/22 06:30:30;;;;;;;10.30;7.20;;;;;;;20.48;100.00;100888.30;110013;1238;61441;-76
2023/09/22 06:32:59;;;;;;;9.20;4.70;;;;;;;20.58;100.00;100893.21;109982;1238;73262;-76
2023/09/22 06:35:27;;;;;;;48.30;35.60;;;;;;;20.62;100.00;100896.63;109981;1238;71409;-77
2023/09/22 06:37:56;;;;;;;8.90;5.10;;;;;;;20.73;100.00;100897.40;109959;1238;60610;-76
2023/09/22 06:40:26;;;;;;;8.00;4.30;;;;;;;20.73;100.00;100898.60;109847;1238;63061;-77
2023/09/22 06:42:55;;;;;;;11.80;4.40;;;;;;;20.76;100.00;100900.77;109756;1241;57614;-77
2023/09/22 06:45:39;;;;;;;12.30;5.40;;;;;;;20.99;100.00;100905.21;109864;1238;61338;-77
2023/09/22 06:48:09;;;;;;;6.70;3.90;;;;;;;21.11;100.00;100903.13;109806;1238;62397;-76
2023/09/22 06:50:38;;;;;;;9.10;3.90;;;;;;;21.15;100.00;100902.17;109924;1238;61490;-76
2023/09/22 06:53:07;;;;;;;9.30;4.30;;;;;;;21.31;100.00;100901.36;109910;1238;59954;-76
2023/09/22 06:55:37;;;;;;;8.80;3.80;;;;;;;21.48;100.00;100905.14;109863;1238;62838;-76
2023/09/22 06:58:07;;;;;;;6.60;3.50;;;;;;;21.42;100.00;100908.27;109843;1240;60210;-78
2023/09/22 07:00:36;;;;;;;9.10;4.00;;;;;;;21.51;100.00;100904.55;109776;1238;62124;-77
2023/09/22 07:03:05;;;;;;;6.70;3.20;;;;;;;21.61;100.00;100904.92;109731;1238;73454;-77
2023/09/22 07:05:34;;;;;;;8.50;3.00;;;;;;;21.73;100.00;100900.99;109866;1238;62130;-76
2023/09/22 07:08:04;;;;;;;7.90;4.00;;;;;;;21.81;100.00;100901.45;109930;1238;59782;-76
2023/09/22 07:10:35;;;;;;;8.40;5.30;;;;;;;22.02;100.00;100904.55;109764;1241;73013;-77
2023/09/22 07:13:03;;;;;;;4.70;2.50;;;;;;;22.05;100.00;100907.95;109994;1239;61438;-77
2023/09/22 07:15:33;;;;;;;6.90;2.90;;;;;;;21.82;100.00;100909.27;109979;1237;60696;-77
2023/09/22 07:18:02;;;;;;;4.70;2.90;;;;;;;21.82;100.00;100913.72;109897;1238;74246;-77
2023/09/22 07:20:31;;;;;;;6.70;2.90;;;;;;;21.88;100.00;100915.52;109764;1238;72815;-76
2023/09/22 07:22:59;;;;;;;7.10;3.40;;;;;;;21.84;100.00;100919.33;109833;1238;70298;-77
2023/09/22 07:25:28;;;;;;;10.40;4.60;;;;;;;21.92;100.00;100919.15;109812;1238;63712;-76
2023/09/22 07:27:57;;;;;;;5.30;3.00;;;;;;;21.91;100.00;100922.27;109833;1240;57707;-76
2023/09/22 07:30:29;;;;;;;11.00;3.10;;;;;;;21.82;100.00;100923.89;109855;1238;57169;-77
2023/09/22 07:32:58;;;;;;;8.40;3.50;;;;;;;21.90;100.00;100924.48;109788;1238;61977;-76
2023/09/22 07:35:27;;;;;;;8.00;3.30;;;;;;;21.96;100.00;100919.74;109832;1238;72295;-76
2023/09/22 07:37:56;;;;;;;8.60;3.90;;;;;;;21.96;100.00;100922.86;109623;1240;69717;-78
2023/09/22 07:40:25;;;;;;;7.70;3.00;;;;;;;21.89;100.00;100922.13;109709;1239;73482;-77
2023/09/22 07:42:54;;;;;;;5.90;3.10;;;;;;;22.05;100.00;100918.43;109745;1241;60698;-76
2023/09/22 07:45:22;;;;;;;7.50;3.00;;;;;;;21.98;100.00;100914.53;109550;1239;61497;-79
2023/09/22 07:47:51;;;;;;;8.00;3.50;;;;;;;22.30;100.00;100913.38;109760;1238;73911;-75
2023/09/22 07:50:20;;;;;;;7.70;3.40;;;;;;;22.47;100.00;100909.40;109827;1238;61187;-76
2023/09/22 07:52:49;;;;;;;5.50;3.30;;;;;;;22.76;100.00;100915.03;109489;1239;348940;-77
2023/09/22 07:55:18;;;;;;;6.30;3.00;;;;;;;22.98;100.00;100913.77;109721;1238;62772;-76
2023/09/22 07:57:49;;;;;;;5.40;3.10;;;;;;;23.26;100.00;100914.50;109721;1239;57787;-77
2023/09/22 08:00:19;;;;;;;6.50;3.00;;;;;;;23.36;100.00;100915.42;109865;1238;60956;-67
2023/09/22 08:02:49;;;;;;;8.20;3.50;;;;;;;23.12;100.00;100913.45;109863;1238;73354;-67
2023/09/22 08:05:18;;;;;;;5.20;3.10;;;;;;;23.26;100.00;100917.21;109725;1239;69962;-67
2023/09/22 08:07:51;;;;;;;8.70;3.40;;;;;;;23.38;100.00;100913.60;109764;1238;70133;-67
2023/09/22 08:10:22;;;;;;;6.80;3.00;;;;;;;23.44;100.00;100916.13;109743;1238;74335;-67
2023/09/22 08:12:53;;;;;;;6.20;2.80;;;;;;;23.51;100.00;100919.64;109558;1241;57668;-68
2023/09/22 08:15:22;;;;;;;6.60;3.40;;;;;;;23.55;100.00;100916.88;109822;1237;57383;-68
2023/09/22 08:17:51;;;;;;;7.70;4.60;;;;;;;23.57;100.00;100917.66;109849;1238;72106;-68
2023/09/22 08:20:20;;;;;;;6.70;3.10;;;;;;;23.50;100.00;100914.75;109748;1238;72513;-66
2023/09/22 08:22:49;;;;;;;7.30;2.70;;;;;;;23.45;100.00;100918.95;109924;1238;69915;-66
2023/09/22 08:25:20;;;;;;;6.90;3.10;;;;;;;23.58;100.00;100919.38;109975;1239;74040;-66
2023/09/22 08:27:52;;;;;;;4.50;2.40;;;;;;;23.78;100.00;100918.52;109929;1239;60676;-66
2023/09/22 08:30:21;;;;;;;5.70;2.70;;;;;;;23.85;100.00;100920.59;110039;1238;57491;-66
2023/09/22 08:32:50;;;;;;;5.80;2.70;;;;;;;24.04;100.00;100916.75;109928;1241;62029;-66
2023/09/22 08:35:20;;;;;;;7.90;3.40;;;;;;;24.21;100.00;100915.48;109944;1238;61846;-67
2023/09/22 08:37:49;;;;;;;6.70;2.90;;;;;;;24.34;100.00;100914.84;110031;1238;69612;-67
2023/09/22 08:40:18;;;;;;;7.20;2.90;;;;;;;24.53;100.00;100910.29;109917;1239;63406;-68
2023/09/22 08:42:48;;;;;;;9.30;3.50;;;;;;;24.47;100.00;100911.48;109997;1241;57571;-67
2023/09/22 08:45:17;;;;;;;6.50;3.00;;;;;;;24.46;100.00;100910.11;109922;1238;57757;-68
2023/09/22 08:47:47;;;;;;;6.80;3.20;;;;;;;24.67;100.00;100908.29;109953;1241;62941;-67
2023/09/22 08:50:20;;;;;;;9.30;3.00;;;;;;;24.65;100.00;100912.11;109769;1241;61130;-70
2023/09/22 08:52:51;;;;;;;5.40;2.90;;;;;;;24.84;100.00;100914.57;109741;1238;70758;-67
2023/09/22 08:55:23;;;;;;;7.00;3.10;;;;;;;25.13;100.00;100917.00;109765;1238;63197;-67
2023/09/22 08:57:53;;;;;;;6.70;2.90;;;;;;;25.18;99.90;100916.02;109946;1241;57634;-67
2023/09/22 09:00:26;;;;;;;8.00;3.00;;;;;;;25.14;99.61;100916.23;110008;1238;57185;-66
2023/09/22 09:03:09;;;;;;;8.80;3.10;;;;;;;25.15;99.46;100913.73;109934;1238;62982;-67
2023/09/22 09:05:43;;;;;;;8.30;3.00;;;;;;;24.99;99.80;100919.70;109927;1238;72190;-68
2023/09/22 09:08:15;;;;;;;6.30;2.90;;;;;;;25.19;99.79;100919.25;109976;1238;70929;-67
2023/09/22 09:10:47;;;;;;;5.70;3.10;;;;;;;25.32;98.80;100925.00;109935;1238;73886;-67
2023/09/22 09:13:19;;;;;;;7.10;3.00;;;;;;;25.18;98.96;100921.67;109897;1241;57706;-68
2023/09/22 09:16:01;;;;;;;10.50;5.00;;;;;;;25.00;99.84;100923.28;109964;1241;61352;-67
2023/09/22 09:18:30;;;;;;;7.80;3.30;;;;;;;25.09;100.00;100921.63;109788;1238;72779;-67
2023/09/22 09:21:10;;;;;;;6.60;3.10;;;;;;;25.15;99.87;100920.16;109829;1238;72146;-67
2023/09/22 09:23:56;;;;;;;7.90;3.70;;;;;;;25.01;100.00;100914.77;109786;1238;69958;-67
2023/09/22 09:26:32;;;;;;;6.80;2.90;;;;;;;24.94;100.00;100912.15;109734;1238;74258;-66
2023/09/22 09:29:01;;;;;;;7.50;3.00;;;;;;;24.97;100.00;100911.55;109620;1241;57562;-66
2023/09/22 09:31:46;;;;;;;6.80;2.60;;;;;;;24.79;100.00;100913.08;109845;1237;57699;-66
2023/09/22 09:34:16;;;;;;;10.10;3.40;;;;;;;24.82;100.00;100908.48;109658;1242;63345;-66
2023/09/22 09:36:45;;;;;;;7.40;2.90;;;;;;;24.79;100.00;100913.53;109773;1238;70483;-66
2023/09/22 09:39:14;;;;;;;12.40;2.90;;;;;;;24.74;100.00;100915.48;109870;1241;60023;-66
2023/09/22 09:41:43;;;;;;;7.60;3.00;;;;;;;24.63;100.00;100919.16;109726;1238;74631;-66
2023/09/22 09:44:13;;;;;;;6.70;3.10;;;;;;;24.62;100.00;100920.39;109573;1242;57558;-66
2023/09/22 09:46:43;;;;;;;6.20;3.10;;;;;;;24.67;100.00;100921.70;109865;1238;57155;-66
2023/09/22 09:49:13;;;;;;;10.00;2.90;;;;;;;24.68;100.00;100923.02;109858;1238;63214;-67
2023/09/22 09:51:48;;;;;;;6.50;3.60;;;;;;;24.64;100.00;100920.61;109746;1238;72110;-67
2023/09/22 09:54:22;;;;;;;11.60;3.90;;;;;;;24.42;100.00;100919.53;109776;1238;61797;-67
2023/09/22 09:56:51;;;;;;;7.40;3.80;;;;;;;24.29;100.00;100915.21;109625;1242;73338;-67
2023/09/22 09:59:22;;;;;;;9.70;3.70;;;;;;;24.08;100.00;100917.44;109597;1242;57622;-69
2023/09/22 10:01:52;;;;;;;8.80;3.40;;;;;;;24.15;100.00;100913.55;109721;1242;57738;-66
2023/09/22 10:04:22;;;;;;;6.30;3.10;;;;;;;24.13;100.00;100910.70;109713;1238;73533;-69
2023/09/22 10:06:53;;;;;;;8.00;4.10;;;;;;;23.95;100.00;100913.86;109795;1238;72478;-67
2023/09/22 10:09:22;;;;;;;8.20;3.00;;;;;;;24.11;100.00;100910.08;109753;1237;70653;-67
2023/09/22 10:11:52;;;;;;;8.50;3.70;;;;;;;24.05;100.00;100909.36;109829;1238;63466;-67
2023/09/22 10:14:51;;;;;;;6.40;3.70;;;;;;;24.07;100.00;100909.27;109676;1241;60108;-69
2023/09/22 10:17:22;;;;;;;8.90;3.30;;;;;;;24.16;100.00;100903.58;109812;1238;57362;-66
2023/09/22 10:19:51;;;;;;;7.20;3.10;;;;;;;24.20;100.00;100900.45;109691;1238;62969;-66
2023/09/22 10:22:20;;;;;;;9.50;3.30;;;;;;;24.06;100.00;100897.94;109996;1238;61460;-66
2023/09/22 10:25:12;;;;;;;9.50;3.60;;;;;;;24.04;100.00;100891.27;109908;1238;59034;-67
2023/09/22 10:28:01;;;;;;;5.10;3.50;;;;;;;24.26;100.00;100888.88;109870;1238;65012;-67
2023/09/22 10:30:45;;;;;;;8.00;3.80;;;;;;;24.48;100.00;100886.55;109902;1241;57349;-66
2023/09/22 10:33:26;;;;;;;9.00;3.60;;;;;;;24.66;100.00;100884.66;109956;1240;58002;-66
2023/09/22 10:35:55;;;;;;;8.10;3.40;;;;;;;24.78;100.00;100882.62;109867;1238;72395;-66
2023/09/22 10:38:25;;;;;;;7.50;3.10;;;;;;;24.93;100.00;100874.73;109774;1238;72497;-67
2023/09/22 10:40:59;;;;;;;6.30;3.30;;;;;;;25.09;100.00;100876.66;109800;1238;62014;-67
2023/09/22 10:43:32;;;;;;;8.50;3.40;;;;;;;25.29;100.00;100876.17;109747;1238;63577;-67
2023/09/22 10:46:01;;;;;;;4.60;3.00;;;;;;;25.44;100.00;100870.80;109707;1239;59333;-67
2023/09/22 10:48:34;;;;;;;15.80;3.70;;;;;;;25.75;99.62;100871.11;109591;1244;57775;-67
2023/09/22 10:51:05;;;;;;;8.20;3.40;;;;;;;25.68;99.53;100868.47;109837;1238;61942;-66
2023/09/22 10:53:38;;;;;;;7.40;3.00;;;;;;;25.51;100.00;100867.23;109837;1238;60702;-66
2023/09/22 10:56:07;;;;;;;6.40;3.10;;;;;;;25.85;99.15;100863.41;109857;1238;59027;-67
2023/09/22 10:58:37;;;;;;;11.90;3.70;;;;;;;26.08;98.21;100861.37;109717;1242;62476;-67
2023/09/22 11:01:07;;;;;;;7.30;2.70;;;;;;;26.30;96.65;100864.85;109828;1240;59586;-67
2023/09/22 11:03:35;;;;;;;6.70;3.10;;;;;;;26.36;96.64;100865.09;109893;1238;57191;-67
2023/09/22 11:06:06;;;;;;;6.50;2.80;;;;;;;26.50;95.12;100860.90;109786;1241;63306;-66
2023/09/22 11:08:51;;;;;;;5.20;3.10;;;;;;;26.41;95.42;100856.05;109743;1238;71436;-66
2023/09/22 11:11:20;;;;;;;8.00;3.40;;;;;;;26.74;94.23;100847.77;109595;1238;60750;-66
2023/09/22 11:13:59;;;;;;;10.60;4.10;;;;;;;26.81;93.71;100842.27;109594;1238;62274;-67
2023/09/22 11:16:29;;;;;;;10.20;6.30;;;;;;;27.01;92.78;100838.77;109778;1241;59576;-68
2023/09/22 11:19:06;;;;;;;5.70;3.50;;;;;;;26.88;92.81;100831.51;109918;1241;60530;-66
2023/09/22 11:21:39;;;;;;;11.10;3.60;;;;;;;26.60;93.62;100828.05;109836;1243;73162;-67
2023/09/22 11:24:08;;;;;;;4.70;3.30;;;;;;;26.50;94.02;100828.00;110021;1238;62102;-66